createdAt,value
2022-08-19T00:00:21.327Z,21.82
2022-08-19T00:01:30.345Z,21.83
2022-08-19T00:02:32.211Z,21.80
2022-08-19T00:03:33.792Z,21.82
2022-08-19T00:04:36.576Z,21.81
2022-08-19T00:05:38.154Z,21.82
2022-08-19T00:06:41.919Z,21.82
2022-08-19T00:07:44.087Z,21.83
2022-08-19T00:08:45.753Z,21.79
2022-08-19T00:09:47.475Z,21.77
2022-08-19T00:10:49.024Z,21.82
2022-08-19T00:11:51.826Z,21.83
2022-08-19T00:12:53.329Z,21.79
2022-08-19T00:13:56.510Z,21.76
2022-08-19T00:14:58.132Z,21.73
2022-08-19T00:16:00.501Z,21.76
2022-08-19T00:17:02.795Z,21.75
2022-08-19T00:18:04.301Z,21.72
2022-08-19T00:19:06.392Z,21.70
2022-08-19T00:20:10.798Z,21.72
2022-08-19T00:21:12.349Z,21.69
2022-08-19T00:22:14.043Z,21.71
2022-08-19T00:23:15.527Z,21.69
2022-08-19T00:24:17.306Z,21.67
2022-08-19T00:25:18.935Z,21.70
2022-08-19T00:26:31.991Z,21.69
2022-08-19T00:27:33.558Z,21.73
2022-08-19T00:28:35.079Z,21.71
2022-08-19T00:29:37.622Z,21.69
2022-08-19T00:30:39.119Z,21.69
2022-08-19T00:31:40.898Z,21.68
2022-08-19T00:32:42.396Z,21.68
2022-08-19T00:33:44.410Z,21.70
2022-08-19T00:34:45.946Z,21.70
2022-08-19T00:35:47.428Z,21.74
2022-08-19T00:36:58.212Z,21.74
2022-08-19T00:37:59.732Z,21.73
2022-08-19T00:39:01.517Z,21.71
2022-08-19T00:40:05.943Z,21.74
2022-08-19T00:41:07.874Z,21.74
2022-08-19T00:42:09.381Z,21.71
2022-08-19T00:43:12.047Z,21.72
2022-08-19T00:44:18.108Z,21.76
2022-08-19T00:45:22.470Z,21.73
2022-08-19T00:46:24.726Z,21.71
2022-08-19T00:47:26.473Z,21.73
2022-08-19T00:48:29.383Z,21.72
2022-08-19T00:49:53.054Z,21.72
2022-08-19T00:50:55.322Z,21.69
2022-08-19T00:52:12.491Z,21.70
2022-08-19T00:53:17.675Z,21.76
2022-08-19T00:54:19.757Z,21.73
2022-08-19T00:55:31.790Z,21.73
2022-08-19T00:56:34.344Z,21.68
2022-08-19T00:57:40.703Z,21.67
2022-08-19T00:58:42.351Z,21.63
2022-08-19T00:59:53.559Z,21.62
2022-08-19T01:01:05.144Z,21.60
2022-08-19T01:02:07.093Z,21.60
2022-08-19T01:03:12.179Z,21.63
2022-08-19T01:04:14.455Z,21.65
2022-08-19T01:05:20.982Z,21.63
2022-08-19T01:06:22.716Z,21.65
2022-08-19T01:07:24.534Z,21.64
2022-08-19T01:08:26.086Z,21.65
2022-08-19T01:09:27.717Z,21.63
2022-08-19T01:10:36.810Z,21.61
2022-08-19T01:11:43.943Z,21.63
2022-08-19T01:12:46.969Z,21.61
2022-08-19T01:13:50.414Z,21.61
2022-08-19T01:14:53.842Z,21.60
2022-08-19T01:16:00.066Z,21.61
2022-08-19T01:17:02.077Z,21.60
2022-08-19T01:18:09.077Z,21.61
2022-08-19T01:19:22.846Z,21.63
2022-08-19T01:20:25.474Z,21.63
2022-08-19T01:21:42.650Z,21.65
2022-08-19T01:22:51.431Z,21.63
2022-08-19T01:23:53.041Z,21.62
2022-08-19T01:24:55.316Z,21.62
2022-08-19T01:25:58.084Z,21.60
2022-08-19T01:27:00.631Z,21.58
2022-08-19T01:28:10.578Z,21.58
2022-08-19T01:29:13.446Z,21.57
2022-08-19T01:30:24.116Z,21.58
2022-08-19T01:31:28.077Z,21.58
2022-08-19T01:32:34.007Z,21.60
2022-08-19T01:33:35.783Z,21.57
2022-08-19T01:34:37.269Z,21.58
2022-08-19T01:35:38.933Z,21.60
2022-08-19T01:36:44.067Z,21.57
2022-08-19T01:37:55.149Z,21.58
2022-08-19T01:38:57.035Z,21.61
2022-08-19T01:39:58.778Z,21.61
2022-08-19T01:41:00.324Z,21.61
2022-08-19T01:42:03.808Z,21.58
2022-08-19T01:43:05.960Z,21.62
2022-08-19T01:44:17.959Z,21.60
2022-08-19T01:45:24.194Z,21.61
2022-08-19T01:46:25.714Z,21.59
2022-08-19T01:47:27.396Z,21.56
2022-08-19T01:48:34.236Z,21.57
2022-08-19T01:49:37.092Z,21.56
2022-08-19T01:50:38.694Z,21.55
2022-08-19T01:51:40.625Z,21.52
2022-08-19T01:52:44.008Z,21.49
2022-08-19T01:53:48.781Z,21.47
2022-08-19T01:54:50.279Z,21.58
2022-08-19T01:55:51.923Z,21.57
2022-08-19T01:56:58.675Z,21.58
2022-08-19T01:58:03.605Z,21.55
2022-08-19T01:59:11.131Z,21.53
2022-08-19T02:00:15.489Z,21.52
2022-08-19T02:01:18.054Z,21.47
2022-08-19T02:02:19.677Z,21.45
2022-08-19T02:03:21.191Z,21.43
2022-08-19T02:04:22.763Z,21.42
2022-08-19T02:05:24.941Z,21.40
2022-08-19T02:06:27.081Z,21.43
2022-08-19T02:07:28.878Z,21.43
2022-08-19T02:08:32.015Z,21.42
2022-08-19T02:09:33.695Z,21.41
2022-08-19T02:10:40.202Z,21.39
2022-08-19T02:11:42.229Z,21.48
2022-08-19T02:12:44.316Z,21.48
2022-08-19T02:13:46.256Z,21.47
2022-08-19T02:14:48.060Z,21.43
2022-08-19T02:15:49.637Z,21.43
2022-08-19T02:16:51.362Z,21.48
2022-08-19T02:17:52.969Z,21.44
2022-08-19T02:18:54.823Z,21.41
2022-08-19T02:19:57.300Z,21.38
2022-08-19T02:20:58.830Z,21.39
2022-08-19T02:22:01.034Z,21.43
2022-08-19T02:23:02.611Z,21.42
2022-08-19T02:24:05.133Z,21.45
2022-08-19T02:25:06.870Z,21.39
2022-08-19T02:26:08.807Z,21.42
2022-08-19T02:27:10.299Z,21.41
2022-08-19T02:28:15.521Z,21.33
2022-08-19T02:29:19.701Z,21.33
2022-08-19T02:30:22.338Z,21.43
2022-08-19T02:31:26.018Z,21.37
2022-08-19T02:32:27.490Z,21.31
2022-08-19T02:33:29.107Z,21.35
2022-08-19T02:34:30.822Z,21.32
2022-08-19T02:35:32.424Z,21.26
2022-08-19T02:36:34.017Z,21.20
2022-08-19T02:37:36.030Z,21.25
2022-08-19T02:38:37.714Z,21.29
2022-08-19T02:39:39.249Z,21.27
2022-08-19T02:40:40.768Z,21.22
2022-08-19T02:41:42.305Z,21.24
2022-08-19T02:42:43.783Z,21.25
2022-08-19T02:44:28.942Z,21.26
2022-08-19T02:45:08.350Z,21.25
2022-08-19T02:46:14.572Z,21.24
2022-08-19T02:47:16.133Z,21.33
2022-08-19T02:48:21.465Z,21.33
2022-08-19T02:49:23.499Z,21.28
2022-08-19T02:50:25.069Z,21.29
2022-08-19T02:51:30.983Z,21.24
2022-08-19T02:52:34.076Z,21.24
2022-08-19T02:53:35.633Z,21.28
2022-08-19T02:54:37.115Z,21.24
2022-08-19T02:55:46.787Z,21.17
2022-08-19T02:56:48.299Z,21.17
2022-08-19T02:57:50.175Z,21.13
2022-08-19T02:58:51.749Z,21.20
2022-08-19T02:59:54.724Z,21.15
2022-08-19T03:00:57.460Z,21.06
2022-08-19T03:01:59.156Z,21.07
2022-08-19T03:03:00.707Z,21.15
2022-08-19T03:04:05.858Z,21.15
2022-08-19T03:05:09.236Z,21.12
2022-08-19T03:06:13.958Z,21.09
2022-08-19T03:07:16.884Z,21.10
2022-08-19T03:08:19.331Z,21.09
2022-08-19T03:09:23.095Z,21.09
2022-08-19T03:10:24.573Z,21.12
2022-08-19T03:11:30.245Z,21.09
2022-08-19T03:12:31.797Z,21.08
2022-08-19T03:13:33.350Z,21.05
2022-08-19T03:14:35.075Z,20.99
2022-08-19T03:15:41.007Z,21.00
2022-08-19T03:16:48.245Z,20.97
2022-08-19T03:17:49.936Z,20.91
2022-08-19T03:18:53.046Z,21.00
2022-08-19T03:19:54.564Z,21.02
2022-08-19T03:20:56.148Z,20.99
2022-08-19T03:21:58.625Z,20.96
2022-08-19T03:23:00.141Z,20.95
2022-08-19T03:24:09.164Z,20.88
2022-08-19T03:25:10.803Z,20.82
2022-08-19T03:26:16.578Z,20.82
2022-08-19T03:27:18.572Z,20.81
2022-08-19T03:28:21.120Z,20.82
2022-08-19T03:29:30.352Z,20.80
2022-08-19T03:30:32.554Z,20.74
2022-08-19T03:31:43.935Z,20.72
2022-08-19T03:32:47.366Z,20.68
2022-08-19T03:33:55.465Z,20.69
2022-08-19T03:34:56.944Z,20.73
2022-08-19T03:36:05.298Z,20.82
2022-08-19T03:37:09.810Z,20.71
2022-08-19T03:38:11.321Z,20.66
2022-08-19T03:39:12.924Z,20.66
2022-08-19T03:40:16.535Z,20.66
2022-08-19T03:41:21.251Z,20.62
2022-08-19T03:42:32.547Z,20.63
2022-08-19T03:43:45.054Z,20.60
2022-08-19T03:44:46.533Z,20.55
2022-08-19T03:45:48.092Z,20.56
2022-08-19T03:46:53.797Z,20.55
2022-08-19T03:47:56.256Z,20.50
2022-08-19T03:49:00.900Z,20.49
2022-08-19T03:50:02.688Z,20.45
2022-08-19T03:51:04.320Z,20.46
2022-08-19T03:52:05.889Z,20.44
2022-08-19T03:53:07.538Z,20.38
2022-08-19T03:54:12.852Z,20.41
2022-08-19T03:55:14.577Z,20.40
2022-08-19T03:56:16.366Z,20.37
2022-08-19T03:57:17.826Z,20.40
2022-08-19T03:58:19.355Z,20.39
2022-08-19T03:59:30.618Z,20.36
2022-08-19T04:00:32.161Z,20.35
2022-08-19T04:01:35.299Z,20.47
2022-08-19T04:02:37.402Z,20.41
2022-08-19T04:03:40.269Z,20.36
2022-08-19T04:04:44.561Z,20.40
2022-08-19T04:05:46.982Z,20.39
2022-08-19T04:06:48.999Z,20.36
2022-08-19T04:07:50.549Z,20.32
2022-08-19T04:08:54.053Z,20.34
2022-08-19T04:09:55.570Z,20.32
2022-08-19T04:10:57.045Z,20.34
2022-08-19T04:11:58.789Z,20.36
2022-08-19T04:13:00.395Z,20.42
2022-08-19T04:14:02.400Z,20.45
2022-08-19T04:15:06.472Z,20.43
2022-08-19T04:16:08.080Z,20.38
2022-08-19T04:17:09.642Z,20.39
2022-08-19T04:18:11.449Z,20.41
2022-08-19T04:19:14.744Z,20.39
2022-08-19T04:20:16.567Z,20.38
2022-08-19T04:21:21.433Z,20.38
2022-08-19T04:22:22.940Z,20.40
2022-08-19T04:23:28.784Z,20.38
2022-08-19T04:24:31.158Z,20.36
2022-08-19T04:25:38.005Z,20.32
2022-08-19T04:26:39.595Z,20.33
2022-08-19T04:27:41.123Z,20.33
2022-08-19T04:28:44.409Z,20.32
2022-08-19T04:29:45.959Z,20.33
2022-08-19T04:30:50.153Z,20.34
2022-08-19T04:31:53.147Z,20.34
2022-08-19T04:32:54.848Z,20.30
2022-08-19T04:33:58.557Z,20.31
2022-08-19T04:35:01.489Z,20.44
2022-08-19T04:36:20.244Z,20.41
2022-08-19T04:37:22.457Z,20.37
2022-08-19T04:38:24.016Z,20.32
2022-08-19T04:39:29.671Z,20.31
2022-08-19T04:40:31.284Z,20.31
2022-08-19T04:41:34.065Z,20.31
2022-08-19T04:42:35.550Z,20.40
2022-08-19T04:43:39.391Z,20.39
2022-08-19T04:44:46.000Z,20.35
2022-08-19T04:45:48.556Z,20.32
2022-08-19T04:46:52.117Z,20.33
2022-08-19T04:47:58.914Z,20.33
2022-08-19T04:49:20.561Z,20.31
2022-08-19T04:50:22.096Z,20.34
2022-08-19T04:51:23.878Z,20.32
2022-08-19T04:52:25.406Z,20.32
2022-08-19T04:53:29.235Z,20.33
2022-08-19T04:54:37.828Z,20.34
2022-08-19T04:55:42.345Z,20.37
2022-08-19T04:56:43.951Z,20.37
2022-08-19T04:57:45.560Z,20.41
2022-08-19T04:58:47.678Z,20.41
2022-08-19T04:59:49.325Z,20.39
2022-08-19T05:00:51.163Z,20.38
2022-08-19T05:01:52.706Z,20.38
2022-08-19T05:02:54.496Z,20.40
2022-08-19T05:03:57.258Z,20.37
2022-08-19T05:04:59.790Z,20.39
2022-08-19T05:06:16.048Z,20.38
2022-08-19T05:07:17.586Z,20.39
2022-08-19T05:08:30.713Z,20.40
2022-08-19T05:09:58.191Z,20.42
2022-08-19T05:10:54.711Z,20.43
2022-08-19T05:11:56.315Z,20.44
2022-08-19T05:12:57.786Z,20.45
2022-08-19T05:13:59.390Z,20.45
2022-08-19T05:15:01.119Z,20.44
2022-08-19T05:16:02.838Z,20.49
2022-08-19T05:17:26.012Z,20.55
2022-08-19T05:18:26.657Z,20.66
2022-08-19T05:19:28.197Z,20.65
2022-08-19T05:20:29.719Z,20.67
2022-08-19T05:21:32.673Z,20.65
2022-08-19T05:22:34.279Z,20.63
2022-08-19T05:23:35.836Z,20.68
2022-08-19T05:24:51.231Z,20.69
2022-08-19T05:25:58.145Z,20.68
2022-08-19T05:26:59.670Z,20.68
2022-08-19T05:28:01.135Z,20.68
2022-08-19T05:29:03.504Z,20.68
2022-08-19T05:30:06.141Z,20.67
2022-08-19T05:31:07.693Z,20.67
2022-08-19T05:32:09.186Z,20.62
2022-08-19T05:33:10.811Z,20.60
2022-08-19T05:34:20.131Z,20.64
2022-08-19T05:35:22.082Z,20.61
2022-08-19T05:36:23.660Z,20.63
2022-08-19T05:37:25.269Z,20.62
2022-08-19T05:38:26.775Z,20.60
2022-08-19T05:39:34.090Z,20.59
2022-08-19T05:40:36.506Z,20.60
2022-08-19T05:41:46.243Z,20.65
2022-08-19T05:42:55.411Z,20.64
2022-08-19T05:43:58.762Z,20.68
2022-08-19T05:45:00.326Z,20.67
2022-08-19T05:46:02.089Z,20.66
2022-08-19T05:47:05.844Z,20.67
2022-08-19T05:48:07.390Z,20.68
2022-08-19T05:49:09.337Z,20.67
2022-08-19T05:50:10.921Z,20.69
2022-08-19T05:51:13.139Z,20.71
2022-08-19T05:52:25.751Z,20.74
2022-08-19T05:53:28.095Z,20.75
2022-08-19T05:54:29.669Z,20.72
2022-08-19T05:55:31.786Z,20.71
2022-08-19T05:56:34.693Z,20.66
2022-08-19T05:57:36.247Z,20.65
2022-08-19T05:58:39.608Z,20.63
2022-08-19T05:59:41.156Z,20.65
2022-08-19T06:00:44.748Z,20.64
2022-08-19T06:01:47.019Z,20.66
2022-08-19T06:02:48.655Z,20.72
2022-08-19T06:03:50.219Z,20.72
2022-08-19T06:04:51.720Z,20.73
2022-08-19T06:05:53.284Z,20.85
2022-08-19T06:06:55.286Z,20.84
2022-08-19T06:07:57.073Z,20.84
2022-08-19T06:08:58.535Z,20.91
2022-08-19T06:10:01.414Z,20.89
2022-08-19T06:11:33.958Z,20.81
2022-08-19T06:12:36.547Z,20.82
2022-08-19T06:13:38.021Z,20.84
2022-08-19T06:14:41.870Z,20.85
2022-08-19T06:15:43.597Z,20.85
2022-08-19T06:16:45.952Z,20.84
2022-08-19T06:17:47.561Z,20.87
2022-08-19T06:18:51.302Z,20.84
2022-08-19T06:19:53.235Z,20.85
2022-08-19T06:20:56.174Z,20.90
2022-08-19T06:21:59.850Z,21.02
2022-08-19T06:23:02.175Z,20.98
2022-08-19T06:24:05.977Z,20.98
2022-08-19T06:25:08.393Z,20.96
2022-08-19T06:26:13.178Z,20.96
2022-08-19T06:27:14.702Z,20.96
2022-08-19T06:28:16.438Z,20.95
2022-08-19T06:29:23.988Z,21.00
2022-08-19T06:30:26.035Z,20.99
2022-08-19T06:31:29.870Z,21.03
2022-08-19T06:32:31.432Z,21.05
2022-08-19T06:33:32.945Z,21.11
2022-08-19T06:34:35.470Z,21.17
2022-08-19T06:35:40.805Z,21.23
2022-08-19T06:36:45.544Z,21.20
2022-08-19T06:37:47.169Z,21.20
2022-08-19T06:38:48.870Z,21.25
2022-08-19T06:39:51.286Z,21.28
2022-08-19T06:41:07.805Z,21.28
2022-08-19T06:42:11.444Z,21.23
2022-08-19T06:43:13.079Z,21.21
2022-08-19T06:44:16.663Z,21.20
2022-08-19T06:45:18.623Z,21.24
2022-08-19T06:46:26.890Z,21.24
2022-08-19T06:47:28.917Z,21.29
2022-08-19T06:48:31.698Z,21.33
2022-08-19T06:49:36.136Z,21.29
2022-08-19T06:50:39.450Z,21.34
2022-08-19T06:51:44.710Z,21.37
2022-08-19T06:52:46.437Z,21.32
2022-08-19T06:53:52.921Z,21.29
2022-08-19T06:54:56.330Z,21.36
2022-08-19T06:55:58.352Z,21.41
2022-08-19T06:57:01.427Z,21.45
2022-08-19T06:58:04.312Z,21.48
2022-08-19T06:59:10.055Z,21.54
2022-08-19T07:00:12.949Z,21.52
2022-08-19T07:01:14.726Z,21.49
2022-08-19T07:03:22.780Z,21.57
2022-08-19T07:04:28.516Z,21.63
2022-08-19T07:05:30.068Z,21.67
2022-08-19T07:06:44.028Z,21.74
2022-08-19T07:07:47.554Z,21.85
2022-08-19T07:08:49.297Z,21.84
2022-08-19T07:09:59.290Z,21.93
2022-08-19T07:11:09.412Z,21.94
2022-08-19T07:12:13.405Z,21.98
2022-08-19T07:13:15.083Z,21.96
2022-08-19T07:14:19.622Z,21.96
2022-08-19T07:15:21.636Z,21.97
2022-08-19T07:16:29.202Z,21.98
2022-08-19T07:17:32.230Z,21.91
2022-08-19T07:18:36.650Z,21.86
2022-08-19T07:19:40.343Z,21.79
2022-08-19T07:20:42.241Z,21.78
2022-08-19T07:21:44.169Z,21.79
2022-08-19T07:22:45.655Z,21.79
2022-08-19T07:23:48.276Z,21.79
2022-08-19T07:24:51.146Z,21.72
2022-08-19T07:25:53.464Z,21.71
2022-08-19T07:26:57.636Z,21.76
2022-08-19T07:27:59.583Z,21.77
2022-08-19T07:29:03.287Z,21.80
2022-08-19T07:30:06.425Z,21.76
2022-08-19T07:31:08.884Z,21.69
2022-08-19T07:32:11.637Z,21.68
2022-08-19T07:33:15.147Z,21.78
2022-08-19T07:34:16.895Z,21.77
2022-08-19T07:35:18.706Z,21.75
2022-08-19T07:36:24.287Z,21.78
2022-08-19T07:37:32.377Z,21.81
2022-08-19T07:38:35.041Z,21.84
2022-08-19T07:39:38.532Z,21.75
2022-08-19T07:40:40.081Z,21.71
2022-08-19T07:41:41.899Z,21.75
2022-08-19T07:42:43.506Z,21.69
2022-08-19T07:43:45.261Z,21.71
2022-08-19T07:44:50.781Z,21.70
2022-08-19T07:45:54.007Z,21.65
2022-08-19T07:46:57.453Z,21.75
2022-08-19T07:47:59.075Z,21.71
2022-08-19T07:49:00.686Z,21.66
2022-08-19T07:50:02.467Z,21.67
2022-08-19T07:51:06.425Z,21.63
2022-08-19T07:52:10.458Z,21.68
2022-08-19T07:53:12.220Z,21.69
2022-08-19T07:54:13.951Z,21.70
2022-08-19T07:55:40.674Z,21.67
2022-08-19T07:56:38.997Z,21.63
2022-08-19T07:57:40.546Z,21.60
2022-08-19T07:58:45.107Z,21.58
2022-08-19T07:59:46.615Z,21.63
2022-08-19T08:00:50.934Z,21.64
2022-08-19T08:01:52.734Z,21.65
2022-08-19T08:02:55.641Z,21.71
2022-08-19T08:03:58.866Z,21.68
2022-08-19T08:05:00.378Z,21.69
2022-08-19T08:06:01.926Z,21.66
2022-08-19T08:07:05.150Z,21.67
2022-08-19T08:08:06.646Z,21.66
2022-08-19T08:09:09.074Z,21.66
2022-08-19T08:10:20.727Z,21.67
2022-08-19T08:11:24.058Z,21.69
2022-08-19T08:12:34.536Z,21.72
2022-08-19T08:13:36.734Z,21.71
2022-08-19T08:14:44.470Z,21.70
2022-08-19T08:15:48.602Z,21.76
2022-08-19T08:16:53.795Z,21.82
2022-08-19T08:17:55.356Z,21.80
2022-08-19T08:18:56.957Z,21.86
2022-08-19T08:19:59.238Z,21.85
2022-08-19T08:21:00.954Z,21.86
2022-08-19T08:22:03.794Z,21.85
2022-08-19T08:23:05.401Z,21.87
2022-08-19T08:24:06.944Z,21.87
2022-08-19T08:25:15.298Z,21.93
2022-08-19T08:26:16.831Z,21.91
2022-08-19T08:27:22.652Z,21.94
2022-08-19T08:28:29.392Z,21.91
2022-08-19T08:29:34.889Z,21.91
2022-08-19T08:30:36.979Z,21.82
2022-08-19T08:31:38.925Z,21.80
2022-08-19T08:32:41.532Z,21.89
2022-08-19T08:33:43.059Z,21.85
2022-08-19T08:34:44.597Z,21.83
2022-08-19T08:35:49.300Z,21.84
2022-08-19T08:36:50.860Z,21.90
2022-08-19T08:37:54.929Z,21.95
2022-08-19T08:40:13.057Z,21.89
2022-08-19T08:41:23.249Z,21.88
2022-08-19T08:42:41.604Z,21.96
2022-08-19T08:43:47.546Z,22.02
2022-08-19T08:45:03.115Z,21.99
2022-08-19T08:46:06.297Z,22.08
2022-08-19T08:47:16.858Z,22.08
2022-08-19T08:48:52.931Z,22.10
2022-08-19T08:50:03.496Z,22.03
2022-08-19T08:51:12.461Z,22.07
2022-08-19T08:52:22.502Z,22.06
2022-08-19T08:53:32.534Z,22.11
2022-08-19T08:54:48.811Z,22.13
2022-08-19T08:55:56.307Z,22.23
2022-08-19T08:56:57.874Z,22.30
2022-08-19T08:58:06.848Z,22.34
2022-08-19T08:59:21.413Z,22.40
2022-08-19T09:00:30.285Z,22.44
2022-08-19T09:01:33.174Z,22.41
2022-08-19T09:02:34.739Z,22.56
2022-08-19T09:03:39.319Z,22.67
2022-08-19T09:04:40.958Z,22.62
2022-08-19T09:05:57.714Z,22.59
2022-08-19T09:07:34.968Z,22.62
2022-08-19T09:08:40.658Z,22.61
2022-08-19T09:09:51.484Z,22.67
2022-08-19T09:10:57.058Z,22.67
2022-08-19T09:12:27.797Z,22.69
2022-08-19T09:13:31.992Z,22.67
2022-08-19T09:14:56.099Z,22.70
2022-08-19T09:16:08.661Z,22.84
2022-08-19T09:17:11.032Z,22.87
2022-08-19T09:18:18.148Z,22.91
2022-08-19T09:19:22.414Z,22.94
2022-08-19T09:20:26.255Z,22.93
2022-08-19T09:21:33.007Z,22.84
2022-08-19T09:22:36.510Z,22.92
2022-08-19T09:23:38.087Z,22.97
2022-08-19T09:24:39.579Z,23.01
2022-08-19T09:25:41.152Z,23.05
2022-08-19T09:26:51.832Z,23.13
2022-08-19T09:27:55.602Z,23.13
2022-08-19T09:29:04.434Z,23.16
2022-08-19T09:30:07.285Z,23.24
2022-08-19T09:31:08.799Z,23.30
2022-08-19T09:32:26.114Z,23.16
2022-08-19T09:33:28.502Z,23.17
2022-08-19T09:34:37.907Z,23.13
2022-08-19T09:35:52.826Z,23.08
2022-08-19T09:36:55.041Z,23.13
2022-08-19T09:37:59.765Z,23.19
2022-08-19T09:39:02.596Z,23.20
2022-08-19T09:40:05.339Z,23.26
2022-08-19T09:41:17.488Z,23.21
2022-08-19T09:42:30.283Z,23.21
2022-08-19T09:43:44.637Z,23.29
2022-08-19T09:44:49.465Z,23.27
2022-08-19T09:45:50.961Z,23.37
2022-08-19T09:46:52.536Z,23.28
2022-08-19T09:47:55.189Z,23.24
2022-08-19T09:49:06.102Z,23.28
2022-08-19T09:50:11.102Z,23.30
2022-08-19T09:51:25.377Z,23.35
2022-08-19T09:52:32.789Z,23.37
2022-08-19T09:53:39.123Z,23.45
2022-08-19T09:54:41.647Z,23.44
2022-08-19T09:55:45.938Z,23.45
2022-08-19T09:56:47.772Z,23.48
2022-08-19T09:57:49.343Z,23.40
2022-08-19T09:58:51.390Z,23.45
2022-08-19T09:59:52.899Z,23.49
2022-08-19T10:00:56.346Z,23.43
2022-08-19T10:02:03.848Z,23.40
2022-08-19T10:03:12.587Z,23.36
2022-08-19T10:04:20.305Z,23.37
2022-08-19T10:05:26.830Z,23.34
2022-08-19T10:06:46.100Z,23.35
2022-08-19T10:07:48.747Z,23.39
2022-08-19T10:08:51.092Z,23.57
2022-08-19T10:09:52.650Z,23.55
2022-08-19T10:10:55.235Z,23.51
2022-08-19T10:11:56.746Z,23.53
2022-08-19T10:12:58.274Z,23.46
2022-08-19T10:14:00.372Z,23.43
2022-08-19T10:15:02.265Z,23.47
2022-08-19T10:16:09.961Z,23.47
2022-08-19T10:17:19.320Z,23.48
2022-08-19T10:18:24.782Z,23.60
2022-08-19T10:19:27.171Z,23.63
2022-08-19T10:20:28.755Z,23.62
2022-08-19T10:21:33.507Z,23.71
2022-08-19T10:22:35.205Z,23.71
2022-08-19T10:23:39.116Z,23.79
2022-08-19T10:24:41.436Z,23.84
2022-08-19T10:25:44.120Z,23.69
2022-08-19T10:26:45.599Z,23.70
2022-08-19T10:27:51.310Z,23.79
2022-08-19T10:28:53.795Z,23.71
2022-08-19T10:29:56.400Z,23.70
2022-08-19T10:31:12.119Z,23.76
2022-08-19T10:32:14.365Z,23.75
2022-08-19T10:33:15.937Z,23.67
2022-08-19T10:34:48.321Z,23.68
2022-08-19T10:35:59.852Z,23.70
2022-08-19T10:37:01.917Z,23.67
2022-08-19T10:38:04.020Z,23.75
2022-08-19T10:39:08.643Z,23.69
2022-08-19T10:40:10.872Z,23.73
2022-08-19T10:41:18.474Z,23.70
2022-08-19T10:42:20.426Z,23.84
2022-08-19T10:43:22.126Z,23.88
2022-08-19T10:44:24.103Z,23.93
2022-08-19T10:45:25.676Z,23.94
2022-08-19T10:46:30.426Z,23.99
2022-08-19T10:47:34.313Z,24.00
2022-08-19T10:48:35.904Z,24.00
2022-08-19T10:49:37.405Z,24.03
2022-08-19T10:50:39.002Z,24.08
2022-08-19T10:51:47.767Z,24.15
2022-08-19T10:52:51.186Z,24.29
2022-08-19T10:53:53.030Z,24.28
2022-08-19T10:54:54.671Z,24.32
2022-08-19T10:55:56.195Z,24.39
2022-08-19T10:56:57.862Z,24.38
2022-08-19T10:58:02.643Z,24.39
2022-08-19T10:59:05.835Z,24.45
2022-08-19T11:00:07.852Z,24.53
2022-08-19T11:01:09.454Z,24.57
2022-08-19T11:02:12.056Z,24.68
2022-08-19T11:03:13.594Z,24.76
2022-08-19T11:04:15.588Z,24.94
2022-08-19T11:05:17.753Z,25.06
2022-08-19T11:06:20.331Z,25.01
2022-08-19T11:07:21.816Z,25.07
2022-08-19T11:08:24.141Z,25.15
2022-08-19T11:09:33.528Z,25.24
2022-08-19T11:10:35.944Z,25.33
2022-08-19T11:11:39.369Z,25.47
2022-08-19T11:12:41.564Z,25.62
2022-08-19T11:13:43.654Z,25.67
2022-08-19T11:14:45.159Z,25.73
2022-08-19T11:15:46.693Z,25.68
2022-08-19T11:16:49.708Z,25.67
2022-08-19T11:17:52.472Z,25.68
2022-08-19T11:18:57.463Z,25.70
2022-08-19T11:19:58.962Z,25.60
2022-08-19T11:21:12.978Z,25.66
2022-08-19T11:22:16.193Z,25.55
2022-08-19T11:23:21.331Z,25.64
2022-08-19T11:24:26.219Z,25.59
2022-08-19T11:25:27.772Z,25.49
2022-08-19T11:26:30.718Z,25.42
2022-08-19T11:27:32.326Z,25.36
2022-08-19T11:28:33.813Z,25.34
2022-08-19T11:29:36.738Z,25.34
2022-08-19T11:30:39.559Z,25.39
2022-08-19T11:31:44.351Z,25.50
2022-08-19T11:32:49.273Z,25.41
2022-08-19T11:33:51.139Z,25.54
2022-08-19T11:34:52.676Z,25.52
2022-08-19T11:35:54.588Z,25.51
2022-08-19T11:36:56.866Z,25.48
2022-08-19T11:37:58.348Z,25.42
2022-08-19T11:39:01.126Z,25.35
2022-08-19T11:40:02.759Z,25.30
2022-08-19T11:41:07.709Z,25.20
2022-08-19T11:42:09.408Z,25.26
2022-08-19T11:43:10.875Z,25.18
2022-08-19T11:44:12.856Z,25.11
2022-08-19T11:45:14.514Z,25.12
2022-08-19T11:46:17.821Z,25.17
2022-08-19T11:47:20.194Z,25.14
2022-08-19T11:48:23.801Z,25.07
2022-08-19T11:49:25.610Z,25.06
2022-08-19T11:50:27.146Z,25.05
2022-08-19T11:51:29.352Z,25.10
2022-08-19T11:52:31.085Z,25.14
2022-08-19T11:53:33.869Z,25.16
2022-08-19T11:54:35.845Z,25.14
2022-08-19T11:55:39.461Z,25.16
2022-08-19T11:56:46.318Z,25.13
2022-08-19T11:57:47.896Z,25.11
2022-08-19T11:58:50.038Z,25.10
2022-08-19T11:59:52.928Z,25.06
2022-08-19T12:00:54.495Z,25.04
2022-08-19T12:01:56.313Z,25.02
2022-08-19T12:02:58.479Z,25.02
2022-08-19T12:04:00.930Z,25.04
2022-08-19T12:05:02.575Z,25.08
2022-08-19T12:06:09.669Z,25.14
2022-08-19T12:07:11.226Z,25.22
2022-08-19T12:08:13.370Z,25.30
2022-08-19T12:09:14.921Z,25.25
2022-08-19T12:10:18.442Z,25.26
2022-08-19T12:11:21.101Z,25.33
2022-08-19T12:12:22.639Z,25.39
2022-08-19T12:13:24.181Z,25.45
2022-08-19T12:14:25.709Z,25.49
2022-08-19T12:15:28.024Z,25.54
2022-08-19T12:16:30.753Z,25.69
2022-08-19T12:17:32.259Z,25.74
2022-08-19T12:18:33.747Z,25.79
2022-08-19T12:19:37.324Z,25.83
2022-08-19T12:20:40.443Z,25.90
2022-08-19T12:21:42.006Z,25.94
2022-08-19T12:22:44.002Z,25.90
2022-08-19T12:23:45.507Z,25.91
2022-08-19T12:24:47.282Z,25.95
2022-08-19T12:25:50.143Z,26.01
2022-08-19T12:26:53.711Z,26.06
2022-08-19T12:27:57.535Z,26.07
2022-08-19T12:28:59.907Z,26.12
2022-08-19T12:30:01.562Z,26.21
2022-08-19T12:31:04.552Z,26.15
2022-08-19T12:32:06.075Z,26.11
2022-08-19T12:33:07.776Z,26.12
2022-08-19T12:34:09.333Z,26.11
2022-08-19T12:35:10.873Z,26.02
2022-08-19T12:36:14.744Z,26.03
2022-08-19T12:37:16.277Z,25.98
2022-08-19T12:38:18.221Z,25.81
2022-08-19T12:39:19.778Z,25.83
2022-08-19T12:40:21.303Z,25.77
2022-08-19T12:41:23.005Z,25.73
2022-08-19T12:42:25.413Z,25.71
2022-08-19T12:43:27.664Z,25.70
2022-08-19T12:44:32.128Z,25.78
2022-08-19T12:45:35.446Z,25.76
2022-08-19T12:46:39.017Z,25.72
2022-08-19T12:47:41.706Z,25.71
2022-08-19T12:48:47.315Z,25.62
2022-08-19T12:49:55.773Z,25.62
2022-08-19T12:50:57.553Z,25.62
2022-08-19T12:51:59.175Z,25.57
2022-08-19T12:53:00.739Z,25.48
2022-08-19T12:54:02.515Z,25.40
2022-08-19T12:55:07.096Z,25.41
2022-08-19T12:56:12.450Z,25.43
2022-08-19T12:57:14.224Z,25.43
2022-08-19T12:58:16.731Z,25.49
2022-08-19T12:59:21.796Z,25.51
2022-08-19T13:00:23.947Z,25.43
2022-08-19T13:01:25.482Z,25.28
2022-08-19T13:02:27.043Z,25.33
2022-08-19T13:03:28.636Z,25.24
2022-08-19T13:04:30.203Z,25.23
2022-08-19T13:05:33.810Z,25.21
2022-08-19T13:06:36.240Z,25.25
2022-08-19T13:07:38.960Z,25.21
2022-08-19T13:08:40.546Z,25.18
2022-08-19T13:09:42.142Z,25.19
2022-08-19T13:10:44.328Z,25.21
2022-08-19T13:11:46.664Z,25.19
2022-08-19T13:12:50.659Z,25.21
2022-08-19T13:13:53.578Z,25.21
2022-08-19T13:14:56.103Z,25.23
2022-08-19T13:16:02.166Z,25.23
2022-08-19T13:17:03.753Z,25.17
2022-08-19T13:18:05.315Z,25.20
2022-08-19T13:19:07.171Z,25.14
2022-08-19T13:20:10.185Z,25.15
2022-08-19T13:21:12.104Z,25.06
2022-08-19T13:22:15.016Z,25.13
2022-08-19T13:23:17.275Z,25.09
2022-08-19T13:24:19.384Z,25.07
2022-08-19T13:25:21.140Z,25.03
2022-08-19T13:26:23.289Z,25.04
2022-08-19T13:27:24.839Z,24.99
2022-08-19T13:28:28.981Z,24.98
2022-08-19T13:29:31.015Z,24.99
2022-08-19T13:30:32.969Z,24.99
2022-08-19T13:31:36.277Z,24.93
2022-08-19T13:32:37.839Z,24.98
2022-08-19T13:33:39.515Z,24.97
2022-08-19T13:34:41.106Z,24.97
2022-08-19T13:35:50.630Z,24.91
2022-08-19T13:36:53.762Z,24.83
2022-08-19T13:37:58.454Z,24.81
2022-08-19T13:39:00.033Z,24.80
2022-08-19T13:40:01.777Z,24.75
2022-08-19T13:41:11.134Z,24.76
2022-08-19T13:42:14.881Z,24.78
2022-08-19T13:43:23.165Z,24.71
2022-08-19T13:44:25.044Z,24.61
2022-08-19T13:45:28.830Z,24.53
2022-08-19T13:46:30.431Z,24.46